Terminal Aerodrome Forecast
Issued by NWS Wilmington, NC

Home | Current Version | Previous Version | Text Only | Print | Product List | Glossary On
Versions: 1 2 3 4 5 6 7 8 9 10 11 12 13
000
FTUS42 KILM 241736
TAFMYR
TAF
KMYR 241736Z 2418/2518 09010KT P6SM FEW030
     FM250300 VRB03KT P6SM SKC
     FM250900 00000KT 1/2SM FG VV002
     FM251300 21005KT P6SM SCT004
     FM251600 21010KT P6SM SCT250=

USA.gov is the U.S. government's official web portal to all federal, state and local government web resources and services.